sensor_id;sensor_type;location;lat;lon;timestamp;P1;durP1;ratioP1;P2;durP2;ratioP2
2191;SDS011;1102;49.718;11.902;2022-07-06T00:01:52;3.20;;;3.00;;
2191;SDS011;1102;49.718;11.902;2022-07-06T00:04:19;3.17;;;2.33;;
2191;SDS011;1102;49.718;11.902;2022-07-06T00:06:46;5.80;;;3.97;;
2191;SDS011;1102;49.718;11.902;2022-07-06T00:09:12;2.30;;;2.20;;
2191;SDS011;1102;49.718;11.902;2022-07-06T00:11:39;3.30;;;3.00;;
2191;SDS011;1102;49.718;11.902;2022-07-06T00:14:06;3.27;;;3.03;;
2191;SDS011;1102;49.718;11.902;2022-07-06T00:16:33;6.33;;;3.53;;
2191;SDS011;1102;49.718;11.902;2022-07-06T00:19:00;4.40;;;2.90;;
2191;SDS011;1102;49.718;11.902;2022-07-06T00:21:26;2.80;;;2.40;;
2191;SDS011;1102;49.718;11.902;2022-07-06T00:23:53;7.70;;;3.43;;
2191;SDS011;1102;49.718;11.902;2022-07-06T00:26:20;3.07;;;2.77;;
2191;SDS011;1102;49.718;11.902;2022-07-06T00:28:47;3.23;;;2.93;;
2191;SDS011;1102;49.718;11.902;2022-07-06T00:31:13;4.90;;;3.23;;
2191;SDS011;1102;49.718;11.902;2022-07-06T00:33:40;4.47;;;2.63;;
2191;SDS011;1102;49.718;11.902;2022-07-06T00:36:07;3.70;;;2.93;;
2191;SDS011;1102;49.718;11.902;2022-07-06T00:38:34;10.40;;;3.53;;
2191;SDS011;1102;49.718;11.902;2022-07-06T00:41:02;3.37;;;3.10;;
2191;SDS011;1102;49.718;11.902;2022-07-06T00:43:45;3.00;;;2.80;;
2191;SDS011;1102;49.718;11.902;2022-07-06T00:46:16;3.80;;;3.40;;
2191;SDS011;1102;49.718;11.902;2022-07-06T00:48:44;3.93;;;3.57;;
2191;SDS011;1102;49.718;11.902;2022-07-06T00:51:11;3.50;;;3.30;;
2191;SDS011;1102;49.718;11.902;2022-07-06T00:53:38;4.03;;;3.57;;
2191;SDS011;1102;49.718;11.902;2022-07-06T00:56:06;3.53;;;3.23;;
2191;SDS011;1102;49.718;11.902;2022-07-06T00:58:33;3.40;;;3.10;;
2191;SDS011;1102;49.718;11.902;2022-07-06T01:01:00;4.07;;;2.77;;
2191;SDS011;1102;49.718;11.902;2022-07-06T01:03:27;3.83;;;3.07;;
2191;SDS011;1102;49.718;11.902;2022-07-06T01:05:54;3.37;;;2.60;;
2191;SDS011;1102;49.718;11.902;2022-07-06T01:08:20;2.87;;;2.67;;
2191;SDS011;1102;49.718;11.902;2022-07-06T01:10:49;5.90;;;3.53;;
2191;SDS011;1102;49.718;11.902;2022-07-06T01:13:16;6.33;;;2.60;;
2191;SDS011;1102;49.718;11.902;2022-07-06T01:15:43;3.27;;;3.07;;
2191;SDS011;1102;49.718;11.902;2022-07-06T01:18:10;3.50;;;2.70;;
2191;SDS011;1102;49.718;11.902;2022-07-06T01:20:40;2.77;;;2.57;;
2191;SDS011;1102;49.718;11.902;2022-07-06T01:23:07;4.33;;;3.00;;
2191;SDS011;1102;49.718;11.902;2022-07-06T01:25:33;2.60;;;2.40;;
2191;SDS011;1102;49.718;11.902;2022-07-06T01:28:00;3.10;;;2.67;;
2191;SDS011;1102;49.718;11.902;2022-07-06T01:30:29;2.70;;;2.50;;
2191;SDS011;1102;49.718;11.902;2022-07-06T01:32:56;6.17;;;2.67;;
2191;SDS011;1102;49.718;11.902;2022-07-06T01:35:22;3.67;;;2.90;;
2191;SDS011;1102;49.718;11.902;2022-07-06T01:37:50;3.47;;;2.80;;
2191;SDS011;1102;49.718;11.902;2022-07-06T01:40:17;2.90;;;2.43;;
2191;SDS011;1102;49.718;11.902;2022-07-06T01:42:44;3.00;;;2.77;;
2191;SDS011;1102;49.718;11.902;2022-07-06T01:45:12;3.50;;;3.20;;
2191;SDS011;1102;49.718;11.902;2022-07-06T01:47:40;2.57;;;2.37;;
2191;SDS011;1102;49.718;11.902;2022-07-06T01:50:07;4.40;;;2.37;;
2191;SDS011;1102;49.718;11.902;2022-07-06T01:52:42;4.20;;;2.57;;
2191;SDS011;1102;49.718;11.902;2022-07-06T01:55:09;4.90;;;3.07;;
2191;SDS011;1102;49.718;11.902;2022-07-06T01:57:37;2.70;;;2.50;;
2191;SDS011;1102;49.718;11.902;2022-07-06T02:00:05;2.80;;;2.50;;
2191;SDS011;1102;49.718;11.902;2022-07-06T02:02:37;2.00;;;1.90;;
2191;SDS011;1102;49.718;11.902;2022-07-06T02:05:05;3.73;;;2.70;;
2191;SDS011;1102;49.718;11.902;2022-07-06T02:07:32;2.40;;;2.20;;
2191;SDS011;1102;49.718;11.902;2022-07-06T02:10:00;4.43;;;2.30;;
2191;SDS011;1102;49.718;11.902;2022-07-06T02:12:27;4.27;;;2.90;;
2191;SDS011;1102;49.718;11.902;2022-07-06T02:14:54;2.80;;;2.50;;
2191;SDS011;1102;49.718;11.902;2022-07-06T02:17:21;2.43;;;2.23;;
2191;SDS011;1102;49.718;11.902;2022-07-06T02:19:49;4.03;;;1.97;;
2191;SDS011;1102;49.718;11.902;2022-07-06T02:22:15;4.70;;;3.13;;
2191;SDS011;1102;49.718;11.902;2022-07-06T02:24:42;3.53;;;2.30;;
2191;SDS011;1102;49.718;11.902;2022-07-06T02:27:09;4.80;;;2.20;;
2191;SDS011;1102;49.718;11.902;2022-07-06T02:29:36;2.57;;;2.37;;
2191;SDS011;1102;49.718;11.902;2022-07-06T02:32:03;6.73;;;2.67;;
2191;SDS011;1102;49.718;11.902;2022-07-06T02:34:30;3.93;;;2.60;;
2191;SDS011;1102;49.718;11.902;2022-07-06T02:36:57;2.17;;;2.00;;
2191;SDS011;1102;49.718;11.902;2022-07-06T02:39:24;2.37;;;2.17;;
2191;SDS011;1102;49.718;11.902;2022-07-06T02:41:51;3.23;;;2.00;;
2191;SDS011;1102;49.718;11.902;2022-07-06T02:44:18;4.33;;;2.90;;
2191;SDS011;1102;49.718;11.902;2022-07-06T02:46:45;7.77;;;2.13;;
2191;SDS011;1102;49.718;11.902;2022-07-06T02:49:12;4.67;;;2.87;;
2191;SDS011;1102;49.718;11.902;2022-07-06T02:51:38;2.87;;;2.57;;
2191;SDS011;1102;49.718;11.902;2022-07-06T02:54:05;2.97;;;2.70;;
2191;SDS011;1102;49.718;11.902;2022-07-06T02:56:32;3.07;;;2.87;;
2191;SDS011;1102;49.718;11.902;2022-07-06T02:58:59;2.63;;;2.43;;
2191;SDS011;1102;49.718;11.902;2022-07-06T03:01:27;3.80;;;2.97;;
2191;SDS011;1102;49.718;11.902;2022-07-06T03:03:54;4.00;;;2.60;;
2191;SDS011;1102;49.718;11.902;2022-07-06T03:06:21;3.30;;;2.80;;
2191;SDS011;1102;49.718;11.902;2022-07-06T03:08:48;3.50;;;2.50;;
2191;SDS011;1102;49.718;11.902;2022-07-06T03:11:14;4.83;;;3.10;;
2191;SDS011;1102;49.718;11.902;2022-07-06T03:13:41;4.30;;;3.07;;
2191;SDS011;1102;49.718;11.902;2022-07-06T03:16:08;3.50;;;2.50;;
2191;SDS011;1102;49.718;11.902;2022-07-06T03:18:35;10.60;;;3.10;;
2191;SDS011;1102;49.718;11.902;2022-07-06T03:21:03;2.67;;;2.47;;
2191;SDS011;1102;49.718;11.902;2022-07-06T03:23:30;9.40;;;2.70;;
2191;SDS011;1102;49.718;11.902;2022-07-06T03:25:57;5.23;;;2.90;;
2191;SDS011;1102;49.718;11.902;2022-07-06T03:28:24;3.37;;;2.60;;
2191;SDS011;1102;49.718;11.902;2022-07-06T03:30:52;4.17;;;2.40;;
2191;SDS011;1102;49.718;11.902;2022-07-06T03:33:21;2.93;;;2.43;;
2191;SDS011;1102;49.718;11.902;2022-07-06T03:35:48;3.30;;;3.10;;
2191;SDS011;1102;49.718;11.902;2022-07-06T03:38:16;4.47;;;2.40;;
2191;SDS011;1102;49.718;11.902;2022-07-06T03:40:42;2.80;;;2.37;;
2191;SDS011;1102;49.718;11.902;2022-07-06T03:43:10;3.83;;;3.40;;
2191;SDS011;1102;49.718;11.902;2022-07-06T03:45:37;3.07;;;2.77;;
2191;SDS011;1102;49.718;11.902;2022-07-06T03:48:05;3.90;;;2.60;;
2191;SDS011;1102;49.718;11.902;2022-07-06T03:50:34;2.77;;;2.50;;
2191;SDS011;1102;49.718;11.902;2022-07-06T03:53:01;2.67;;;2.57;;
2191;SDS011;1102;49.718;11.902;2022-07-06T03:55:28;3.00;;;2.80;;
2191;SDS011;1102;49.718;11.902;2022-07-06T03:58:00;2.90;;;2.70;;
2191;SDS011;1102;49.718;11.902;2022-07-06T04:00:33;3.03;;;2.83;;
2191;SDS011;1102;49.718;11.902;2022-07-06T04:03:04;3.53;;;3.23;;
2191;SDS011;1102;49.718;11.902;2022-07-06T04:05:36;3.40;;;3.10;;
2191;SDS011;1102;49.718;11.902;2022-07-06T04:08:03;2.87;;;2.67;;
2191;SDS011;1102;49.718;11.902;2022-07-06T04:10:36;4.03;;;3.07;;
2191;SDS011;1102;49.718;11.902;2022-07-06T04:13:03;5.23;;;3.10;;
2191;SDS011;1102;49.718;11.902;2022-07-06T04:15:30;2.93;;;2.63;;
2191;SDS011;1102;49.718;11.902;2022-07-06T04:17:57;3.80;;;2.90;;
2191;SDS011;1102;49.718;11.902;2022-07-06T04:20:31;3.63;;;2.73;;
2191;SDS011;1102;49.718;11.902;2022-07-06T04:22:58;3.10;;;2.80;;
2191;SDS011;1102;49.718;11.902;2022-07-06T04:25:25;3.37;;;3.17;;
2191;SDS011;1102;49.718;11.902;2022-07-06T04:27:55;2.87;;;2.67;;
2191;SDS011;1102;49.718;11.902;2022-07-06T04:30:22;3.00;;;2.80;;
2191;SDS011;1102;49.718;11.902;2022-07-06T04:32:49;4.20;;;3.33;;
2191;SDS011;1102;49.718;11.902;2022-07-06T04:35:16;2.90;;;2.70;;
2191;SDS011;1102;49.718;11.902;2022-07-06T04:37:45;3.20;;;2.90;;
2191;SDS011;1102;49.718;11.902;2022-07-06T04:40:14;3.50;;;3.30;;
2191;SDS011;1102;49.718;11.902;2022-07-06T04:42:45;3.00;;;2.80;;
2191;SDS011;1102;49.718;11.902;2022-07-06T04:45:13;3.23;;;2.53;;
2191;SDS011;1102;49.718;11.902;2022-07-06T04:47:40;3.83;;;2.60;;
2191;SDS011;1102;49.718;11.902;2022-07-06T04:50:07;5.00;;;3.00;;
2191;SDS011;1102;49.718;11.902;2022-07-06T04:52:34;3.07;;;2.77;;
2191;SDS011;1102;49.718;11.902;2022-07-06T04:55:01;10.50;;;5.20;;
2191;SDS011;1102;49.718;11.902;2022-07-06T04:57:32;3.20;;;2.70;;
2191;SDS011;1102;49.718;11.902;2022-07-06T05:00:00;3.40;;;2.60;;
2191;SDS011;1102;49.718;11.902;2022-07-06T05:02:28;2.60;;;2.30;;
2191;SDS011;1102;49.718;11.902;2022-07-06T05:04:55;4.77;;;2.93;;
2191;SDS011;1102;49.718;11.902;2022-07-06T05:07:22;2.80;;;2.60;;
2191;SDS011;1102;49.718;11.902;2022-07-06T05:09:55;4.33;;;2.60;;
2191;SDS011;1102;49.718;11.902;2022-07-06T05:12:22;3.00;;;2.70;;
2191;SDS011;1102;49.718;11.902;2022-07-06T05:14:49;3.23;;;2.73;;
2191;SDS011;1102;49.718;11.902;2022-07-06T05:17:17;3.57;;;3.27;;
2191;SDS011;1102;49.718;11.902;2022-07-06T05:19:44;3.80;;;2.97;;
2191;SDS011;1102;49.718;11.902;2022-07-06T05:22:11;9.10;;;4.13;;
2191;SDS011;1102;49.718;11.902;2022-07-06T05:24:38;12.60;;;3.90;;
2191;SDS011;1102;49.718;11.902;2022-07-06T05:27:04;16.70;;;4.03;;
2191;SDS011;1102;49.718;11.902;2022-07-06T05:29:31;23.90;;;4.90;;
2191;SDS011;1102;49.718;11.902;2022-07-06T05:31:58;11.57;;;3.63;;
2191;SDS011;1102;49.718;11.902;2022-07-06T05:34:25;13.20;;;5.77;;
2191;SDS011;1102;49.718;11.902;2022-07-06T05:36:52;9.50;;;4.57;;
2191;SDS011;1102;49.718;11.902;2022-07-06T05:39:18;14.00;;;3.73;;
2191;SDS011;1102;49.718;11.902;2022-07-06T05:41:47;9.20;;;4.07;;
2191;SDS011;1102;49.718;11.902;2022-07-06T05:44:16;7.70;;;3.70;;
2191;SDS011;1102;49.718;11.902;2022-07-06T05:46:43;10.13;;;3.60;;
2191;SDS011;1102;49.718;11.902;2022-07-06T05:49:09;15.63;;;3.17;;
2191;SDS011;1102;49.718;11.902;2022-07-06T05:51:56;5.30;;;2.83;;
2191;SDS011;1102;49.718;11.902;2022-07-06T05:54:22;4.73;;;2.57;;
2191;SDS011;1102;49.718;11.902;2022-07-06T05:56:49;4.20;;;3.03;;
2191;SDS011;1102;49.718;11.902;2022-07-06T05:59:16;3.37;;;2.47;;
2191;SDS011;1102;49.718;11.902;2022-07-06T06:01:43;3.13;;;2.60;;
2191;SDS011;1102;49.718;11.902;2022-07-06T06:04:14;2.37;;;1.97;;
2191;SDS011;1102;49.718;11.902;2022-07-06T06:06:41;3.33;;;2.30;;
2191;SDS011;1102;49.718;11.902;2022-07-06T06:09:08;3.93;;;2.50;;
2191;SDS011;1102;49.718;11.902;2022-07-06T06:11:35;2.50;;;2.40;;
2191;SDS011;1102;49.718;11.902;2022-07-06T06:14:02;3.67;;;2.80;;
2191;SDS011;1102;49.718;11.902;2022-07-06T06:16:28;4.00;;;2.70;;
2191;SDS011;1102;49.718;11.902;2022-07-06T06:18:55;2.80;;;2.60;;
2191;SDS011;1102;49.718;11.902;2022-07-06T06:21:22;4.03;;;2.50;;
2191;SDS011;1102;49.718;11.902;2022-07-06T06:23:50;2.80;;;1.93;;
2191;SDS011;1102;49.718;11.902;2022-07-06T06:26:16;4.33;;;2.47;;
2191;SDS011;1102;49.718;11.902;2022-07-06T06:28:43;2.90;;;2.30;;
2191;SDS011;1102;49.718;11.902;2022-07-06T06:31:10;5.20;;;2.70;;
2191;SDS011;1102;49.718;11.902;2022-07-06T06:33:37;2.83;;;2.57;;
2191;SDS011;1102;49.718;11.902;2022-07-06T06:36:03;2.37;;;2.17;;
2191;SDS011;1102;49.718;11.902;2022-07-06T06:38:30;2.90;;;2.30;;
2191;SDS011;1102;49.718;11.902;2022-07-06T06:40:57;4.60;;;2.97;;
2191;SDS011;1102;49.718;11.902;2022-07-06T06:43:24;3.40;;;1.90;;
2191;SDS011;1102;49.718;11.902;2022-07-06T06:46:01;3.33;;;2.50;;
2191;SDS011;1102;49.718;11.902;2022-07-06T06:48:27;5.60;;;2.20;;
2191;SDS011;1102;49.718;11.902;2022-07-06T06:50:54;2.70;;;1.80;;
2191;SDS011;1102;49.718;11.902;2022-07-06T06:53:21;2.73;;;2.00;;
2191;SDS011;1102;49.718;11.902;2022-07-06T06:55:47;2.43;;;2.20;;
2191;SDS011;1102;49.718;11.902;2022-07-06T06:58:14;2.50;;;1.70;;
2191;SDS011;1102;49.718;11.902;2022-07-06T07:00:41;3.70;;;2.27;;
2191;SDS011;1102;49.718;11.902;2022-07-06T07:03:09;3.50;;;2.30;;
2191;SDS011;1102;49.718;11.902;2022-07-06T07:05:36;2.40;;;1.97;;
2191;SDS011;1102;49.718;11.902;2022-07-06T07:08:03;2.80;;;2.30;;
2191;SDS011;1102;49.718;11.902;2022-07-06T07:10:31;2.13;;;1.73;;
2191;SDS011;1102;49.718;11.902;2022-07-06T07:12:58;2.00;;;1.90;;
2191;SDS011;1102;49.718;11.902;2022-07-06T07:15:25;3.13;;;2.43;;
2191;SDS011;1102;49.718;11.902;2022-07-06T07:17:52;2.23;;;2.00;;
2191;SDS011;1102;49.718;11.902;2022-07-06T07:20:19;3.07;;;2.83;;
2191;SDS011;1102;49.718;11.902;2022-07-06T07:22:46;2.10;;;1.90;;
2191;SDS011;1102;49.718;11.902;2022-07-06T07:25:13;2.50;;;2.30;;
2191;SDS011;1102;49.718;11.902;2022-07-06T07:27:39;2.50;;;2.30;;
2191;SDS011;1102;49.718;11.902;2022-07-06T07:30:07;2.40;;;2.20;;
2191;SDS011;1102;49.718;11.902;2022-07-06T07:32:34;3.77;;;2.17;;
2191;SDS011;1102;49.718;11.902;2022-07-06T07:35:00;2.87;;;2.07;;
2191;SDS011;1102;49.718;11.902;2022-07-06T07:37:28;4.93;;;2.00;;
2191;SDS011;1102;49.718;11.902;2022-07-06T07:39:55;2.33;;;2.13;;
2191;SDS011;1102;49.718;11.902;2022-07-06T07:42:22;2.30;;;2.10;;
2191;SDS011;1102;49.718;11.902;2022-07-06T07:44:48;2.63;;;2.37;;
2191;SDS011;1102;49.718;11.902;2022-07-06T07:47:15;3.50;;;2.20;;
2191;SDS011;1102;49.718;11.902;2022-07-06T07:49:42;3.00;;;2.17;;
2191;SDS011;1102;49.718;11.902;2022-07-06T07:52:09;3.30;;;2.07;;
2191;SDS011;1102;49.718;11.902;2022-07-06T07:54:36;2.83;;;2.50;;
2191;SDS011;1102;49.718;11.902;2022-07-06T07:57:08;3.67;;;2.30;;
2191;SDS011;1102;49.718;11.902;2022-07-06T07:59:36;5.20;;;2.70;;
2191;SDS011;1102;49.718;11.902;2022-07-06T08:02:03;2.63;;;2.30;;
2191;SDS011;1102;49.718;11.902;2022-07-06T08:04:30;1.90;;;1.80;;
2191;SDS011;1102;49.718;11.902;2022-07-06T08:06:56;2.07;;;1.80;;
2191;SDS011;1102;49.718;11.902;2022-07-06T08:09:27;3.60;;;2.23;;
2191;SDS011;1102;49.718;11.902;2022-07-06T08:11:54;4.60;;;2.90;;
2191;SDS011;1102;49.718;11.902;2022-07-06T08:14:20;2.47;;;2.10;;
2191;SDS011;1102;49.718;11.902;2022-07-06T08:16:47;2.67;;;2.20;;
2191;SDS011;1102;49.718;11.902;2022-07-06T08:19:14;2.23;;;2.03;;
2191;SDS011;1102;49.718;11.902;2022-07-06T08:21:41;4.60;;;2.30;;
2191;SDS011;1102;49.718;11.902;2022-07-06T08:24:08;2.60;;;2.40;;
2191;SDS011;1102;49.718;11.902;2022-07-06T08:26:36;3.47;;;2.60;;
2191;SDS011;1102;49.718;11.902;2022-07-06T08:29:03;2.83;;;2.63;;
2191;SDS011;1102;49.718;11.902;2022-07-06T08:31:30;3.17;;;2.10;;
2191;SDS011;1102;49.718;11.902;2022-07-06T08:34:17;3.03;;;2.70;;
2191;SDS011;1102;49.718;11.902;2022-07-06T08:36:44;2.20;;;1.93;;
2191;SDS011;1102;49.718;11.902;2022-07-06T08:39:11;3.20;;;2.20;;
2191;SDS011;1102;49.718;11.902;2022-07-06T08:41:38;2.47;;;2.00;;
2191;SDS011;1102;49.718;11.902;2022-07-06T08:44:08;2.50;;;1.80;;
2191;SDS011;1102;49.718;11.902;2022-07-06T08:46:37;2.00;;;1.90;;
2191;SDS011;1102;49.718;11.902;2022-07-06T08:49:06;3.37;;;2.17;;
2191;SDS011;1102;49.718;11.902;2022-07-06T08:51:36;2.57;;;2.37;;
2191;SDS011;1102;49.718;11.902;2022-07-06T08:54:04;2.80;;;2.50;;
2191;SDS011;1102;49.718;11.902;2022-07-06T08:56:31;3.10;;;2.50;;
2191;SDS011;1102;49.718;11.902;2022-07-06T08:58:58;3.17;;;2.00;;
2191;SDS011;1102;49.718;11.902;2022-07-06T09:01:25;2.40;;;2.20;;
2191;SDS011;1102;49.718;11.902;2022-07-06T09:03:54;4.37;;;3.17;;
2191;SDS011;1102;49.718;11.902;2022-07-06T09:06:25;2.27;;;2.03;;
2191;SDS011;1102;49.718;11.902;2022-07-06T09:08:54;2.10;;;1.83;;
2191;SDS011;1102;49.718;11.902;2022-07-06T09:11:22;3.17;;;2.77;;
2191;SDS011;1102;49.718;11.902;2022-07-06T09:13:51;3.63;;;1.70;;
2191;SDS011;1102;49.718;11.902;2022-07-06T09:16:24;1.97;;;1.87;;
2191;SDS011;1102;49.718;11.902;2022-07-06T09:19:05;3.53;;;1.97;;
2191;SDS011;1102;49.718;11.902;2022-07-06T09:21:33;12.83;;;2.40;;
2191;SDS011;1102;49.718;11.902;2022-07-06T09:24:05;7.50;;;2.60;;
2191;SDS011;1102;49.718;11.902;2022-07-06T09:26:33;3.67;;;2.20;;
2191;SDS011;1102;49.718;11.902;2022-07-06T09:29:01;3.20;;;1.80;;
2191;SDS011;1102;49.718;11.902;2022-07-06T09:31:28;3.00;;;2.10;;
2191;SDS011;1102;49.718;11.902;2022-07-06T09:36:43;2.50;;;2.27;;
2191;SDS011;1102;49.718;11.902;2022-07-06T09:39:14;3.67;;;1.70;;
2191;SDS011;1102;49.718;11.902;2022-07-06T09:41:44;5.30;;;2.40;;
2191;SDS011;1102;49.718;11.902;2022-07-06T09:44:18;6.20;;;2.47;;
2191;SDS011;1102;49.718;11.902;2022-07-06T09:46:49;3.77;;;2.00;;
2191;SDS011;1102;49.718;11.902;2022-07-06T09:49:18;2.17;;;2.07;;
2191;SDS011;1102;49.718;11.902;2022-07-06T09:51:46;2.60;;;1.87;;
2191;SDS011;1102;49.718;11.902;2022-07-06T09:54:15;2.07;;;1.80;;
2191;SDS011;1102;49.718;11.902;2022-07-06T09:56:43;3.07;;;2.77;;
2191;SDS011;1102;49.718;11.902;2022-07-06T09:59:14;2.83;;;2.10;;
2191;SDS011;1102;49.718;11.902;2022-07-06T10:01:42;2.50;;;2.03;;
2191;SDS011;1102;49.718;11.902;2022-07-06T10:04:10;5.10;;;2.30;;
2191;SDS011;1102;49.718;11.902;2022-07-06T10:06:44;2.80;;;2.37;;
2191;SDS011;1102;49.718;11.902;2022-07-06T10:09:12;2.70;;;2.00;;
2191;SDS011;1102;49.718;11.902;2022-07-06T10:11:51;2.00;;;1.90;;
2191;SDS011;1102;49.718;11.902;2022-07-06T10:14:29;3.43;;;2.10;;
2191;SDS011;1102;49.718;11.902;2022-07-06T10:16:58;2.77;;;1.93;;
2191;SDS011;1102;49.718;11.902;2022-07-06T10:19:28;6.93;;;2.13;;
2191;SDS011;1102;49.718;11.902;2022-07-06T10:21:58;2.03;;;1.90;;
2191;SDS011;1102;49.718;11.902;2022-07-06T10:24:27;4.80;;;2.30;;
2191;SDS011;1102;49.718;11.902;2022-07-06T10:26:55;1.60;;;1.47;;
2191;SDS011;1102;49.718;11.902;2022-07-06T10:29:22;2.30;;;1.83;;
2191;SDS011;1102;49.718;11.902;2022-07-06T10:31:50;4.83;;;2.20;;
2191;SDS011;1102;49.718;11.902;2022-07-06T10:34:19;2.47;;;1.80;;
2191;SDS011;1102;49.718;11.902;2022-07-06T10:36:50;2.73;;;2.00;;
2191;SDS011;1102;49.718;11.902;2022-07-06T10:39:38;2.27;;;2.07;;
2191;SDS011;1102;49.718;11.902;2022-07-06T10:42:39;3.30;;;1.87;;
2191;SDS011;1102;49.718;11.902;2022-07-06T10:45:20;1.60;;;1.50;;
2191;SDS011;1102;49.718;11.902;2022-07-06T10:50:48;2.20;;;2.00;;
2191;SDS011;1102;49.718;11.902;2022-07-06T10:53:22;3.73;;;2.40;;
2191;SDS011;1102;49.718;11.902;2022-07-06T10:55:53;5.10;;;2.23;;
2191;SDS011;1102;49.718;11.902;2022-07-06T11:01:08;1.97;;;1.70;;
2191;SDS011;1102;49.718;11.902;2022-07-06T11:06:20;3.53;;;1.80;;
2191;SDS011;1102;49.718;11.902;2022-07-06T11:08:52;3.50;;;2.10;;
2191;SDS011;1102;49.718;11.902;2022-07-06T11:14:00;5.20;;;2.53;;
2191;SDS011;1102;49.718;11.902;2022-07-06T11:16:30;2.13;;;1.67;;
2191;SDS011;1102;49.718;11.902;2022-07-06T11:24:17;6.23;;;3.20;;
2191;SDS011;1102;49.718;11.902;2022-07-06T11:26:49;2.37;;;2.17;;
2191;SDS011;1102;49.718;11.902;2022-07-06T11:29:17;2.37;;;1.70;;
2191;SDS011;1102;49.718;11.902;2022-07-06T11:31:48;1.80;;;1.70;;
2191;SDS011;1102;49.718;11.902;2022-07-06T11:34:23;2.60;;;1.60;;
2191;SDS011;1102;49.718;11.902;2022-07-06T11:36:58;2.97;;;1.93;;
2191;SDS011;1102;49.718;11.902;2022-07-06T11:39:27;2.40;;;2.20;;
2191;SDS011;1102;49.718;11.902;2022-07-06T11:41:55;4.17;;;2.20;;
2191;SDS011;1102;49.718;11.902;2022-07-06T11:44:22;2.40;;;2.20;;
2191;SDS011;1102;49.718;11.902;2022-07-06T11:46:49;3.80;;;2.00;;
2191;SDS011;1102;49.718;11.902;2022-07-06T11:49:16;2.37;;;2.23;;
2191;SDS011;1102;49.718;11.902;2022-07-06T11:51:44;2.87;;;2.00;;
2191;SDS011;1102;49.718;11.902;2022-07-06T11:56:49;4.87;;;2.40;;
2191;SDS011;1102;49.718;11.902;2022-07-06T11:59:22;8.37;;;2.53;;
2191;SDS011;1102;49.718;11.902;2022-07-06T12:01:57;2.33;;;1.70;;
2191;SDS011;1102;49.718;11.902;2022-07-06T12:04:32;2.97;;;2.70;;
2191;SDS011;1102;49.718;11.902;2022-07-06T12:07:01;2.20;;;2.00;;
2191;SDS011;1102;49.718;11.902;2022-07-06T12:09:33;2.47;;;2.17;;
2191;SDS011;1102;49.718;11.902;2022-07-06T12:12:02;2.50;;;2.13;;
2191;SDS011;1102;49.718;11.902;2022-07-06T12:14:30;2.00;;;1.90;;
2191;SDS011;1102;49.718;11.902;2022-07-06T12:17:02;5.57;;;2.37;;
2191;SDS011;1102;49.718;11.902;2022-07-06T12:19:30;2.60;;;1.80;;
2191;SDS011;1102;49.718;11.902;2022-07-06T12:21:57;3.33;;;2.20;;
2191;SDS011;1102;49.718;11.902;2022-07-06T12:24:25;2.17;;;1.87;;
2191;SDS011;1102;49.718;11.902;2022-07-06T12:26:54;3.80;;;2.37;;
2191;SDS011;1102;49.718;11.902;2022-07-06T12:29:21;1.77;;;1.57;;
2191;SDS011;1102;49.718;11.902;2022-07-06T12:34:17;2.53;;;2.33;;
2191;SDS011;1102;49.718;11.902;2022-07-06T12:36:46;2.20;;;2.00;;
2191;SDS011;1102;49.718;11.902;2022-07-06T12:39:21;4.10;;;2.10;;
2191;SDS011;1102;49.718;11.902;2022-07-06T12:42:02;3.17;;;1.70;;
2191;SDS011;1102;49.718;11.902;2022-07-06T12:44:31;3.70;;;2.17;;
2191;SDS011;1102;49.718;11.902;2022-07-06T12:47:02;1.33;;;1.23;;
2191;SDS011;1102;49.718;11.902;2022-07-06T12:49:34;4.30;;;1.57;;
2191;SDS011;1102;49.718;11.902;2022-07-06T13:02:24;4.30;;;1.60;;
2191;SDS011;1102;49.718;11.902;2022-07-06T13:05:12;6.40;;;2.20;;
2191;SDS011;1102;49.718;11.902;2022-07-06T13:07:44;4.70;;;1.87;;
2191;SDS011;1102;49.718;11.902;2022-07-06T13:10:13;3.20;;;1.80;;
2191;SDS011;1102;49.718;11.902;2022-07-06T13:12:41;3.23;;;1.73;;
2191;SDS011;1102;49.718;11.902;2022-07-06T13:15:08;3.23;;;1.60;;
2191;SDS011;1102;49.718;11.902;2022-07-06T13:17:36;2.47;;;1.80;;
2191;SDS011;1102;49.718;11.902;2022-07-06T13:20:09;5.10;;;2.03;;
2191;SDS011;1102;49.718;11.902;2022-07-06T13:22:37;2.20;;;1.47;;
2191;SDS011;1102;49.718;11.902;2022-07-06T13:25:05;2.90;;;1.70;;
2191;SDS011;1102;49.718;11.902;2022-07-06T13:27:32;5.43;;;1.73;;
2191;SDS011;1102;49.718;11.902;2022-07-06T13:29:59;4.70;;;1.50;;
2191;SDS011;1102;49.718;11.902;2022-07-06T13:32:25;2.07;;;1.90;;
2191;SDS011;1102;49.718;11.902;2022-07-06T13:34:52;5.23;;;1.57;;
2191;SDS011;1102;49.718;11.902;2022-07-06T13:37:19;2.73;;;1.90;;
2191;SDS011;1102;49.718;11.902;2022-07-06T13:39:47;5.00;;;1.70;;
2191;SDS011;1102;49.718;11.902;2022-07-06T13:42:14;3.90;;;1.93;;
2191;SDS011;1102;49.718;11.902;2022-07-06T13:44:40;2.73;;;2.43;;
2191;SDS011;1102;49.718;11.902;2022-07-06T13:47:08;2.60;;;1.60;;
2191;SDS011;1102;49.718;11.902;2022-07-06T13:49:35;1.30;;;1.20;;
2191;SDS011;1102;49.718;11.902;2022-07-06T13:52:02;1.40;;;1.30;;
2191;SDS011;1102;49.718;11.902;2022-07-06T13:54:30;1.60;;;1.50;;
2191;SDS011;1102;49.718;11.902;2022-07-06T13:57:01;2.60;;;1.43;;
2191;SDS011;1102;49.718;11.902;2022-07-06T13:59:28;2.00;;;1.80;;
2191;SDS011;1102;49.718;11.902;2022-07-06T14:01:55;2.27;;;1.70;;
2191;SDS011;1102;49.718;11.902;2022-07-06T14:04:22;4.53;;;2.03;;
2191;SDS011;1102;49.718;11.902;2022-07-06T14:06:49;3.30;;;1.90;;
2191;SDS011;1102;49.718;11.902;2022-07-06T14:09:16;1.93;;;1.73;;
2191;SDS011;1102;49.718;11.902;2022-07-06T14:11:42;1.97;;;1.73;;
2191;SDS011;1102;49.718;11.902;2022-07-06T14:14:09;7.30;;;2.30;;
2191;SDS011;1102;49.718;11.902;2022-07-06T14:16:36;4.93;;;2.43;;
2191;SDS011;1102;49.718;11.902;2022-07-06T14:19:03;1.40;;;1.30;;
2191;SDS011;1102;49.718;11.902;2022-07-06T14:21:29;3.03;;;1.50;;
2191;SDS011;1102;49.718;11.902;2022-07-06T14:23:57;2.40;;;1.67;;
2191;SDS011;1102;49.718;11.902;2022-07-06T14:26:23;3.17;;;1.77;;
2191;SDS011;1102;49.718;11.902;2022-07-06T14:28:50;1.93;;;1.77;;
2191;SDS011;1102;49.718;11.902;2022-07-06T14:31:17;2.57;;;1.50;;
2191;SDS011;1102;49.718;11.902;2022-07-06T14:33:48;6.33;;;1.70;;
2191;SDS011;1102;49.718;11.902;2022-07-06T14:36:15;3.03;;;1.90;;
2191;SDS011;1102;49.718;11.902;2022-07-06T14:38:42;1.87;;;1.70;;
2191;SDS011;1102;49.718;11.902;2022-07-06T14:41:09;6.10;;;1.80;;
2191;SDS011;1102;49.718;11.902;2022-07-06T14:43:36;2.47;;;1.87;;
2191;SDS011;1102;49.718;11.902;2022-07-06T14:46:03;2.17;;;2.07;;
2191;SDS011;1102;49.718;11.902;2022-07-06T14:48:30;2.00;;;1.87;;
2191;SDS011;1102;49.718;11.902;2022-07-06T14:50:57;1.50;;;1.40;;
2191;SDS011;1102;49.718;11.902;2022-07-06T14:53:24;3.00;;;1.90;;
2191;SDS011;1102;49.718;11.902;2022-07-06T14:55:52;1.87;;;1.70;;
2191;SDS011;1102;49.718;11.902;2022-07-06T14:58:19;2.33;;;1.50;;
2191;SDS011;1102;49.718;11.902;2022-07-06T15:00:46;1.50;;;1.40;;
2191;SDS011;1102;49.718;11.902;2022-07-06T15:03:21;2.33;;;1.80;;
2191;SDS011;1102;49.718;11.902;2022-07-06T15:05:48;2.40;;;2.00;;
2191;SDS011;1102;49.718;11.902;2022-07-06T15:08:14;2.30;;;1.83;;
2191;SDS011;1102;49.718;11.902;2022-07-06T15:10:42;2.80;;;1.70;;
2191;SDS011;1102;49.718;11.902;2022-07-06T15:13:09;7.33;;;3.00;;
2191;SDS011;1102;49.718;11.902;2022-07-06T15:15:36;1.97;;;1.70;;
2191;SDS011;1102;49.718;11.902;2022-07-06T15:18:23;2.67;;;1.73;;
2191;SDS011;1102;49.718;11.902;2022-07-06T15:20:51;2.23;;;1.67;;
2191;SDS011;1102;49.718;11.902;2022-07-06T15:23:18;3.83;;;1.83;;
2191;SDS011;1102;49.718;11.902;2022-07-06T15:25:45;3.87;;;2.00;;
2191;SDS011;1102;49.718;11.902;2022-07-06T15:28:20;2.17;;;1.57;;
2191;SDS011;1102;49.718;11.902;2022-07-06T15:30:47;2.03;;;1.80;;
2191;SDS011;1102;49.718;11.902;2022-07-06T15:33:14;4.00;;;1.53;;
2191;SDS011;1102;49.718;11.902;2022-07-06T15:35:41;3.63;;;1.67;;
2191;SDS011;1102;49.718;11.902;2022-07-06T15:38:08;4.00;;;1.77;;
2191;SDS011;1102;49.718;11.902;2022-07-06T15:40:34;2.53;;;1.80;;
2191;SDS011;1102;49.718;11.902;2022-07-06T15:43:07;3.50;;;1.87;;